sensor_id;sensor_type;location;lat;lon;timestamp;P1;durP1;ratioP1;P2;durP2;ratioP2
2956;SDS011;1488;51.548;7.222;2022-10-31T18:16:49;3.70;;;3.43;;
2956;SDS011;1488;51.548;7.222;2022-10-31T18:19:19;6.13;;;4.07;;
2956;SDS011;1488;51.548;7.222;2022-10-31T18:21:46;4.50;;;4.17;;
2956;SDS011;1488;51.548;7.222;2022-10-31T18:24:13;4.47;;;4.07;;
2956;SDS011;1488;51.548;7.222;2022-10-31T18:26:40;3.83;;;3.53;;
2956;SDS011;1488;51.548;7.222;2022-10-31T18:29:08;3.80;;;3.50;;
2956;SDS011;1488;51.548;7.222;2022-10-31T18:31:35;4.37;;;4.03;;
2956;SDS011;1488;51.548;7.222;2022-10-31T18:34:03;4.17;;;3.87;;
2956;SDS011;1488;51.548;7.222;2022-10-31T18:36:30;4.30;;;4.00;;
2956;SDS011;1488;51.548;7.222;2022-10-31T18:38:57;3.90;;;3.10;;
2956;SDS011;1488;51.548;7.222;2022-10-31T18:41:24;4.13;;;3.77;;
2956;SDS011;1488;51.548;7.222;2022-10-31T18:43:51;3.63;;;3.27;;
2956;SDS011;1488;51.548;7.222;2022-10-31T18:46:20;4.40;;;4.00;;
2956;SDS011;1488;51.548;7.222;2022-10-31T18:48:47;4.00;;;3.70;;
2956;SDS011;1488;51.548;7.222;2022-10-31T18:51:15;4.20;;;3.90;;
2956;SDS011;1488;51.548;7.222;2022-10-31T18:53:42;4.17;;;3.80;;
2956;SDS011;1488;51.548;7.222;2022-10-31T18:56:15;4.50;;;3.87;;
2956;SDS011;1488;51.548;7.222;2022-10-31T18:58:42;3.70;;;3.50;;
2956;SDS011;1488;51.548;7.222;2022-10-31T19:01:10;4.60;;;3.30;;
2956;SDS011;1488;51.548;7.222;2022-10-31T19:03:38;4.00;;;3.70;;
2956;SDS011;1488;51.548;7.222;2022-10-31T19:06:06;3.53;;;3.33;;
2956;SDS011;1488;51.548;7.222;2022-10-31T19:08:38;3.80;;;3.60;;
2956;SDS011;1488;51.548;7.222;2022-10-31T19:11:05;4.00;;;3.60;;
2956;SDS011;1488;51.548;7.222;2022-10-31T19:13:34;3.73;;;3.43;;
2956;SDS011;1488;51.548;7.222;2022-10-31T19:16:05;3.40;;;3.20;;
2956;SDS011;1488;51.548;7.222;2022-10-31T19:18:33;3.67;;;3.37;;
2956;SDS011;1488;51.548;7.222;2022-10-31T19:21:03;4.87;;;3.90;;
2956;SDS011;1488;51.548;7.222;2022-10-31T19:23:30;4.10;;;3.80;;
2956;SDS011;1488;51.548;7.222;2022-10-31T19:25:59;3.80;;;3.50;;
2956;SDS011;1488;51.548;7.222;2022-10-31T19:28:27;3.87;;;3.57;;
2956;SDS011;1488;51.548;7.222;2022-10-31T19:30:55;3.43;;;3.23;;
2956;SDS011;1488;51.548;7.222;2022-10-31T19:33:22;3.70;;;3.40;;
2956;SDS011;1488;51.548;7.222;2022-10-31T19:35:50;3.30;;;3.00;;
2956;SDS011;1488;51.548;7.222;2022-10-31T19:38:17;3.13;;;2.93;;
2956;SDS011;1488;51.548;7.222;2022-10-31T19:40:44;3.40;;;3.20;;
2956;SDS011;1488;51.548;7.222;2022-10-31T19:43:12;3.40;;;3.20;;
2956;SDS011;1488;51.548;7.222;2022-10-31T19:49:01;3.30;;;3.10;;
2956;SDS011;1488;51.548;7.222;2022-10-31T19:51:28;3.30;;;3.10;;
2956;SDS011;1488;51.548;7.222;2022-10-31T19:53:54;3.50;;;3.20;;
2956;SDS011;1488;51.548;7.222;2022-10-31T19:59:45;3.10;;;2.90;;
2956;SDS011;1488;51.548;7.222;2022-10-31T20:02:11;3.20;;;3.00;;
2956;SDS011;1488;51.548;7.222;2022-10-31T20:04:43;3.20;;;3.00;;
2956;SDS011;1488;51.548;7.222;2022-10-31T20:07:10;3.57;;;3.27;;
2956;SDS011;1488;51.548;7.222;2022-10-31T20:09:37;3.00;;;2.80;;
2956;SDS011;1488;51.548;7.222;2022-10-31T20:12:05;2.60;;;2.40;;
2956;SDS011;1488;51.548;7.222;2022-10-31T20:14:32;2.87;;;2.67;;
2956;SDS011;1488;51.548;7.222;2022-10-31T20:17:00;3.10;;;2.90;;
2956;SDS011;1488;51.548;7.222;2022-10-31T20:19:27;3.20;;;3.00;;
2956;SDS011;1488;51.548;7.222;2022-10-31T20:21:53;3.30;;;3.07;;
2956;SDS011;1488;51.548;7.222;2022-10-31T20:24:20;3.20;;;3.00;;
2956;SDS011;1488;51.548;7.222;2022-10-31T20:26:47;3.53;;;3.23;;
2956;SDS011;1488;51.548;7.222;2022-10-31T20:29:14;3.03;;;2.73;;
2956;SDS011;1488;51.548;7.222;2022-10-31T20:31:41;3.03;;;2.83;;
2956;SDS011;1488;51.548;7.222;2022-10-31T20:34:10;2.90;;;2.70;;
2956;SDS011;1488;51.548;7.222;2022-10-31T20:36:36;2.80;;;2.60;;
2956;SDS011;1488;51.548;7.222;2022-10-31T20:39:03;2.90;;;2.70;;
2956;SDS011;1488;51.548;7.222;2022-10-31T20:41:30;3.13;;;2.93;;
2956;SDS011;1488;51.548;7.222;2022-10-31T20:43:57;3.37;;;3.07;;
2956;SDS011;1488;51.548;7.222;2022-10-31T20:46:24;2.70;;;2.50;;
2956;SDS011;1488;51.548;7.222;2022-10-31T20:48:52;3.37;;;3.17;;
2956;SDS011;1488;51.548;7.222;2022-10-31T20:51:22;3.10;;;2.87;;
2956;SDS011;1488;51.548;7.222;2022-10-31T20:53:50;3.80;;;3.50;;
2956;SDS011;1488;51.548;7.222;2022-10-31T20:56:18;3.07;;;2.30;;
2956;SDS011;1488;51.548;7.222;2022-10-31T20:58:46;3.13;;;2.93;;
2956;SDS011;1488;51.548;7.222;2022-10-31T21:01:14;3.03;;;2.73;;
2956;SDS011;1488;51.548;7.222;2022-10-31T21:03:42;3.03;;;2.80;;
2956;SDS011;1488;51.548;7.222;2022-10-31T21:06:09;4.30;;;2.50;;
2956;SDS011;1488;51.548;7.222;2022-10-31T21:08:38;2.77;;;2.60;;
2956;SDS011;1488;51.548;7.222;2022-10-31T21:11:07;2.80;;;2.60;;
2956;SDS011;1488;51.548;7.222;2022-10-31T21:13:36;3.37;;;3.03;;
2956;SDS011;1488;51.548;7.222;2022-10-31T21:16:04;2.63;;;2.43;;
2956;SDS011;1488;51.548;7.222;2022-10-31T21:18:33;2.67;;;2.57;;
2956;SDS011;1488;51.548;7.222;2022-10-31T21:21:01;2.70;;;2.50;;
2956;SDS011;1488;51.548;7.222;2022-10-31T21:23:33;2.90;;;2.70;;
2956;SDS011;1488;51.548;7.222;2022-10-31T21:26:04;2.63;;;2.50;;
2956;SDS011;1488;51.548;7.222;2022-10-31T21:28:31;2.43;;;2.30;;
2956;SDS011;1488;51.548;7.222;2022-10-31T21:30:58;3.50;;;3.20;;
2956;SDS011;1488;51.548;7.222;2022-10-31T21:33:25;2.13;;;2.03;;
2956;SDS011;1488;51.548;7.222;2022-10-31T21:35:52;2.30;;;2.20;;
2956;SDS011;1488;51.548;7.222;2022-10-31T21:38:19;2.40;;;2.20;;
2956;SDS011;1488;51.548;7.222;2022-10-31T21:40:45;2.60;;;2.37;;
2956;SDS011;1488;51.548;7.222;2022-10-31T21:43:13;2.50;;;2.30;;
2956;SDS011;1488;51.548;7.222;2022-10-31T21:45:40;3.00;;;2.80;;
2956;SDS011;1488;51.548;7.222;2022-10-31T21:48:07;2.60;;;2.40;;
2956;SDS011;1488;51.548;7.222;2022-10-31T21:50:34;2.50;;;2.40;;
2956;SDS011;1488;51.548;7.222;2022-10-31T21:53:00;2.90;;;2.20;;
2956;SDS011;1488;51.548;7.222;2022-10-31T21:55:47;2.90;;;2.20;;
2956;SDS011;1488;51.548;7.222;2022-10-31T21:58:14;2.30;;;2.10;;
2956;SDS011;1488;51.548;7.222;2022-10-31T22:00:41;2.87;;;2.67;;
2956;SDS011;1488;51.548;7.222;2022-10-31T22:03:08;2.63;;;2.43;;
2956;SDS011;1488;51.548;7.222;2022-10-31T22:05:35;5.33;;;2.37;;
2956;SDS011;1488;51.548;7.222;2022-10-31T22:08:01;2.90;;;2.63;;
2956;SDS011;1488;51.548;7.222;2022-10-31T22:10:28;2.43;;;2.23;;
2956;SDS011;1488;51.548;7.222;2022-10-31T22:12:55;2.37;;;2.17;;
2956;SDS011;1488;51.548;7.222;2022-10-31T22:15:24;2.50;;;2.30;;
2956;SDS011;1488;51.548;7.222;2022-10-31T22:17:50;4.23;;;2.57;;
2956;SDS011;1488;51.548;7.222;2022-10-31T22:20:17;3.30;;;2.10;;
2956;SDS011;1488;51.548;7.222;2022-10-31T22:22:45;2.13;;;2.03;;
2956;SDS011;1488;51.548;7.222;2022-10-31T22:25:12;2.40;;;2.20;;
2956;SDS011;1488;51.548;7.222;2022-10-31T22:27:39;2.00;;;1.90;;
2956;SDS011;1488;51.548;7.222;2022-10-31T22:30:07;2.20;;;2.10;;
2956;SDS011;1488;51.548;7.222;2022-10-31T22:32:36;2.50;;;2.27;;
2956;SDS011;1488;51.548;7.222;2022-10-31T22:35:03;2.73;;;2.10;;
2956;SDS011;1488;51.548;7.222;2022-10-31T22:37:30;2.20;;;2.10;;
2956;SDS011;1488;51.548;7.222;2022-10-31T22:39:57;2.53;;;2.00;;
2956;SDS011;1488;51.548;7.222;2022-10-31T22:42:23;2.47;;;2.27;;
2956;SDS011;1488;51.548;7.222;2022-10-31T22:44:50;2.77;;;2.57;;
2956;SDS011;1488;51.548;7.222;2022-10-31T22:47:17;2.47;;;2.03;;
2956;SDS011;1488;51.548;7.222;2022-10-31T22:49:45;2.20;;;1.90;;
2956;SDS011;1488;51.548;7.222;2022-10-31T22:52:13;2.30;;;2.20;;
2956;SDS011;1488;51.548;7.222;2022-10-31T22:54:39;2.80;;;2.00;;
2956;SDS011;1488;51.548;7.222;2022-10-31T23:00:29;2.03;;;1.93;;
2956;SDS011;1488;51.548;7.222;2022-10-31T23:02:56;2.03;;;1.83;;
2956;SDS011;1488;51.548;7.222;2022-10-31T23:05:24;2.23;;;1.90;;
2956;SDS011;1488;51.548;7.222;2022-10-31T23:07:51;3.50;;;2.20;;
2956;SDS011;1488;51.548;7.222;2022-10-31T23:10:17;1.90;;;1.80;;
2956;SDS011;1488;51.548;7.222;2022-10-31T23:12:44;2.20;;;2.00;;
2956;SDS011;1488;51.548;7.222;2022-10-31T23:15:29;2.10;;;2.00;;
2956;SDS011;1488;51.548;7.222;2022-10-31T23:17:55;2.10;;;2.00;;
2956;SDS011;1488;51.548;7.222;2022-10-31T23:20:24;2.47;;;2.27;;
2956;SDS011;1488;51.548;7.222;2022-10-31T23:22:50;2.10;;;2.00;;
2956;SDS011;1488;51.548;7.222;2022-10-31T23:25:17;1.83;;;1.73;;
2956;SDS011;1488;51.548;7.222;2022-10-31T23:28:01;2.07;;;1.97;;
2956;SDS011;1488;51.548;7.222;2022-10-31T23:30:28;2.53;;;1.87;;
2956;SDS011;1488;51.548;7.222;2022-10-31T23:32:55;1.60;;;1.50;;
2956;SDS011;1488;51.548;7.222;2022-10-31T23:35:23;2.10;;;2.00;;
2956;SDS011;1488;51.548;7.222;2022-10-31T23:37:50;1.77;;;1.67;;
2956;SDS011;1488;51.548;7.222;2022-10-31T23:40:16;2.13;;;1.63;;
2956;SDS011;1488;51.548;7.222;2022-10-31T23:42:45;1.57;;;1.47;;
2956;SDS011;1488;51.548;7.222;2022-10-31T23:45:12;2.33;;;2.13;;
2956;SDS011;1488;51.548;7.222;2022-10-31T23:47:40;1.77;;;1.67;;
2956;SDS011;1488;51.548;7.222;2022-10-31T23:50:07;2.03;;;1.93;;
2956;SDS011;1488;51.548;7.222;2022-10-31T23:52:35;1.80;;;1.70;;
2956;SDS011;1488;51.548;7.222;2022-10-31T23:55:02;1.77;;;1.67;;
2956;SDS011;1488;51.548;7.222;2022-10-31T23:57:29;1.97;;;1.70;;
2956;SDS011;1488;51.548;7.222;2022-10-31T23:59:56;1.77;;;1.67;;
